createdAt,value
2023-09-06T00:00:34.715Z,10.32
2023-09-06T00:03:05.343Z,9.13
2023-09-06T00:05:35.376Z,11.85
2023-09-06T00:08:06.983Z,10.57
2023-09-06T00:10:41.692Z,11.38
2023-09-06T00:13:28.060Z,9.63
2023-09-06T00:16:00.766Z,12.73
2023-09-06T00:18:32.841Z,14.70
2023-09-06T00:21:02.915Z,15.93
2023-09-06T00:23:37.817Z,14.75
2023-09-06T00:26:09.016Z,9.02
2023-09-06T00:28:37.748Z,11.30
2023-09-06T00:31:05.760Z,11.30
2023-09-06T00:33:36.353Z,9.57
2023-09-06T00:36:05.989Z,10.60
2023-09-06T00:38:34.620Z,11.15
2023-09-06T00:41:01.796Z,8.48
2023-09-06T00:43:30.705Z,8.43
2023-09-06T00:46:00.749Z,12.15
2023-09-06T00:48:31.205Z,9.27
2023-09-06T00:50:58.572Z,11.88
2023-09-06T00:53:27.558Z,10.57
2023-09-06T00:55:56.597Z,7.75
2023-09-06T00:58:23.598Z,14.02
2023-09-06T01:00:51.210Z,8.98
2023-09-06T01:03:20.936Z,8.57
2023-09-06T01:06:11.031Z,12.77
2023-09-06T01:08:47.445Z,11.38
2023-09-06T01:11:22.776Z,11.70
2023-09-06T01:13:54.622Z,13.77
2023-09-06T01:16:28.208Z,14.82
2023-09-06T01:18:55.493Z,19.42
2023-09-06T01:21:25.656Z,13.20
2023-09-06T01:23:52.960Z,13.50
2023-09-06T01:26:20.191Z,12.40
2023-09-06T01:28:50.452Z,18.65
2023-09-06T01:31:18.253Z,12.27
2023-09-06T01:33:45.522Z,13.02
2023-09-06T01:36:12.677Z,23.65
2023-09-06T01:38:40.293Z,12.48
2023-09-06T01:41:08.063Z,13.88
2023-09-06T01:43:36.121Z,20.35
2023-09-06T01:46:06.850Z,16.35
2023-09-06T01:48:40.111Z,19.23
2023-09-06T01:51:10.084Z,15.27
2023-09-06T01:53:38.028Z,19.70
2023-09-06T01:56:08.522Z,17.98
2023-09-06T01:58:36.076Z,18.58
2023-09-06T02:01:05.160Z,17.30
2023-09-06T02:03:35.532Z,19.63
2023-09-06T02:06:04.413Z,21.02
2023-09-06T02:08:33.287Z,21.70
2023-09-06T02:11:01.523Z,19.70
2023-09-06T02:13:29.164Z,16.08
2023-09-06T02:15:58.857Z,18.35
2023-09-06T02:18:28.669Z,17.88
2023-09-06T02:20:56.718Z,18.52
2023-09-06T02:23:24.843Z,18.00
2023-09-06T02:25:51.971Z,18.23
2023-09-06T02:28:21.166Z,16.77
2023-09-06T02:30:52.974Z,14.32
2023-09-06T02:33:22.133Z,18.95
2023-09-06T02:35:51.102Z,15.70
2023-09-06T02:38:18.472Z,17.13
2023-09-06T02:40:45.867Z,15.93
2023-09-06T02:43:15.209Z,17.50
2023-09-06T02:45:50.941Z,18.65
2023-09-06T02:48:20.733Z,20.70
2023-09-06T02:50:50.360Z,20.00
2023-09-06T02:53:23.022Z,14.68
2023-09-06T02:55:57.307Z,14.45
2023-09-06T02:58:26.061Z,12.75
2023-09-06T03:01:00.698Z,18.92
2023-09-06T03:03:40.029Z,12.93
2023-09-06T03:06:23.974Z,15.55
2023-09-06T03:08:53.095Z,11.13
2023-09-06T03:11:22.901Z,10.95
2023-09-06T03:14:00.400Z,13.25
2023-09-06T03:16:29.074Z,12.88
2023-09-06T03:18:57.613Z,10.90
2023-09-06T03:21:26.331Z,12.30
2023-09-06T03:23:54.235Z,15.48
2023-09-06T03:26:24.476Z,12.25
2023-09-06T03:28:58.312Z,13.45
2023-09-06T03:31:27.653Z,17.10
2023-09-06T03:33:57.754Z,14.25
2023-09-06T03:36:32.361Z,11.98
2023-09-06T03:39:07.575Z,14.85
2023-09-06T03:41:36.017Z,10.27
2023-09-06T03:44:12.086Z,10.75
2023-09-06T03:46:41.952Z,9.43
2023-09-06T03:51:57.454Z,11.52
2023-09-06T03:54:45.979Z,10.30
2023-09-06T03:57:16.752Z,8.20
2023-09-06T03:59:50.504Z,6.68
2023-09-06T04:02:20.974Z,7.10
2023-09-06T04:04:49.244Z,11.60
2023-09-06T04:07:26.677Z,7.80
2023-09-06T04:10:04.608Z,11.00
2023-09-06T04:12:32.441Z,8.27
2023-09-06T04:15:00.295Z,6.53
2023-09-06T04:17:28.975Z,6.93
2023-09-06T04:19:57.558Z,10.45
2023-09-06T04:22:24.896Z,9.00
2023-09-06T04:24:51.962Z,6.07
2023-09-06T04:27:21.600Z,8.85
2023-09-06T04:29:48.984Z,9.25
2023-09-06T04:32:18.776Z,10.38
2023-09-06T04:34:47.211Z,7.97
2023-09-06T04:37:19.559Z,7.45
2023-09-06T04:39:49.041Z,10.88
2023-09-06T04:42:18.075Z,7.13
2023-09-06T04:44:45.847Z,7.13
2023-09-06T04:47:15.375Z,9.07
2023-09-06T04:49:47.750Z,11.63
2023-09-06T04:52:16.889Z,5.68
2023-09-06T04:54:45.526Z,7.68
2023-09-06T04:57:14.270Z,13.88
2023-09-06T04:59:41.389Z,5.88
2023-09-06T05:02:08.941Z,7.75
2023-09-06T05:04:38.147Z,6.47
2023-09-06T05:07:13.402Z,8.68
2023-09-06T05:13:38.336Z,9.98
2023-09-06T05:16:09.935Z,8.82
2023-09-06T05:18:52.282Z,8.77
2023-09-06T05:21:50.724Z,7.13
2023-09-06T05:24:34.365Z,5.40
2023-09-06T05:27:10.466Z,7.90
2023-09-06T05:29:50.378Z,5.38
2023-09-06T05:32:31.469Z,8.18
2023-09-06T05:35:05.003Z,7.30
2023-09-06T05:37:47.348Z,9.20
2023-09-06T05:43:26.019Z,13.30
2023-09-06T05:45:55.492Z,20.38
2023-09-06T05:48:28.224Z,11.38
2023-09-06T05:50:56.834Z,9.05
2023-09-06T05:53:27.586Z,7.45
2023-09-06T05:55:58.540Z,10.93
2023-09-06T05:58:57.225Z,8.65
2023-09-06T06:01:24.504Z,5.75
2023-09-06T06:03:54.202Z,7.25
2023-09-06T06:06:30.871Z,8.57
2023-09-06T06:09:00.755Z,10.90
2023-09-06T06:11:28.658Z,12.43
2023-09-06T06:14:08.072Z,13.10
2023-09-06T06:16:40.448Z,9.18
2023-09-06T06:19:08.964Z,9.38
2023-09-06T06:24:52.502Z,12.02
2023-09-06T06:28:15.386Z,10.13
2023-09-06T06:30:51.366Z,14.40
2023-09-06T06:36:48.757Z,13.32
2023-09-06T06:39:16.563Z,6.47
2023-09-06T06:41:43.671Z,8.80
2023-09-06T06:44:10.962Z,13.38
2023-09-06T06:46:41.056Z,10.15
2023-09-06T06:49:10.170Z,5.70
2023-09-06T06:51:40.246Z,7.85
2023-09-06T06:54:10.698Z,5.93
2023-09-06T06:56:39.372Z,8.00
2023-09-06T06:59:08.520Z,9.25
2023-09-06T07:01:35.925Z,8.50
2023-09-06T07:04:05.936Z,11.73
2023-09-06T07:06:33.278Z,13.82
2023-09-06T07:09:04.618Z,12.95
2023-09-06T07:11:35.149Z,11.23
2023-09-06T07:14:02.645Z,10.60
2023-09-06T07:16:32.545Z,8.65
2023-09-06T07:19:00.516Z,11.88
2023-09-06T07:21:30.527Z,22.17
2023-09-06T07:27:08.546Z,26.05
2023-09-06T07:30:02.514Z,17.30
2023-09-06T07:32:30.541Z,16.40
2023-09-06T07:35:03.279Z,16.55
2023-09-06T07:37:30.782Z,19.80
2023-09-06T07:40:01.411Z,15.13
2023-09-06T07:42:30.504Z,16.83
2023-09-06T07:44:58.313Z,18.40
2023-09-06T07:47:25.950Z,21.02
2023-09-06T07:49:53.168Z,18.05
2023-09-06T07:55:31.031Z,13.27
2023-09-06T08:01:20.052Z,12.88
2023-09-06T08:06:59.117Z,14.65
2023-09-06T08:13:32.961Z,14.30
2023-09-06T08:16:46.688Z,17.45
2023-09-06T08:19:16.190Z,18.13
2023-09-06T08:24:34.695Z,17.17
2023-09-06T08:27:06.696Z,17.90
2023-09-06T08:29:39.717Z,18.45
2023-09-06T08:32:09.936Z,21.80
2023-09-06T08:34:43.583Z,16.63
2023-09-06T08:37:17.092Z,16.30
2023-09-06T08:39:45.179Z,16.02
2023-09-06T08:42:17.358Z,16.65
2023-09-06T08:45:15.467Z,16.58
2023-09-06T08:51:17.307Z,20.65
2023-09-06T08:54:19.995Z,13.80
2023-09-06T08:56:47.063Z,15.15
2023-09-06T08:59:14.079Z,20.05
2023-09-06T09:01:41.233Z,15.52
2023-09-06T09:04:12.183Z,14.88
2023-09-06T09:06:48.978Z,17.45
2023-09-06T09:09:22.774Z,14.95
2023-09-06T09:12:46.048Z,13.95
2023-09-06T09:16:00.974Z,9.80
2023-09-06T09:22:39.137Z,9.20
2023-09-06T09:28:18.905Z,14.32
2023-09-06T09:31:00.682Z,10.85
2023-09-06T09:33:30.029Z,12.27
2023-09-06T09:36:03.512Z,13.38
2023-09-06T09:38:33.816Z,7.80
2023-09-06T09:41:13.652Z,14.25
2023-09-06T09:43:44.207Z,15.05
2023-09-06T09:46:38.506Z,8.65
2023-09-06T09:49:24.468Z,11.23
2023-09-06T09:51:52.465Z,15.02
2023-09-06T09:54:20.824Z,8.00
2023-09-06T09:57:08.271Z,9.20
2023-09-06T10:02:40.707Z,8.00
2023-09-06T10:05:19.394Z,5.90
2023-09-06T10:07:50.261Z,17.65
2023-09-06T10:10:20.388Z,9.35
2023-09-06T10:16:07.145Z,19.98
2023-09-06T10:18:48.142Z,7.45
2023-09-06T10:21:27.851Z,6.97
2023-09-06T10:23:55.332Z,11.32
2023-09-06T10:26:39.672Z,10.15
2023-09-06T10:29:12.541Z,13.68
2023-09-06T10:32:06.242Z,12.07
2023-09-06T10:38:20.712Z,11.77
2023-09-06T10:40:55.288Z,8.25
2023-09-06T10:43:36.031Z,9.75
2023-09-06T10:57:03.201Z,3.97
2023-09-06T11:10:55.311Z,12.48
2023-09-06T11:13:34.855Z,7.43
2023-09-06T11:16:26.757Z,10.63
2023-09-06T11:18:59.618Z,8.57
2023-09-06T11:21:41.443Z,6.22
2023-09-06T11:24:10.784Z,3.42
2023-09-06T11:26:40.279Z,10.52
2023-09-06T11:29:21.929Z,7.65
2023-09-06T11:31:54.399Z,5.10
2023-09-06T11:34:33.042Z,8.25
2023-09-06T11:39:47.774Z,5.13
2023-09-06T11:42:17.458Z,6.40
2023-09-06T11:45:01.805Z,3.78
2023-09-06T11:47:31.988Z,6.17
2023-09-06T11:50:04.894Z,2.50
2023-09-06T11:52:36.617Z,4.32
2023-09-06T11:55:12.541Z,2.88
2023-09-06T11:57:53.065Z,3.03
2023-09-06T12:00:29.516Z,5.28
2023-09-06T12:03:09.156Z,3.20
2023-09-06T12:05:49.151Z,9.80
2023-09-06T12:08:30.886Z,11.15
2023-09-06T12:11:16.361Z,1.27
2023-09-06T12:13:43.498Z,8.45
2023-09-06T12:16:11.583Z,5.57
2023-09-06T12:18:39.030Z,5.95
2023-09-06T12:21:08.777Z,4.93
2023-09-06T12:23:38.360Z,9.75
2023-09-06T12:26:08.152Z,8.48
2023-09-06T12:28:35.369Z,3.13
2023-09-06T12:33:37.874Z,5.68
2023-09-06T12:36:08.866Z,2.08
2023-09-06T12:38:35.914Z,5.70
2023-09-06T12:41:05.149Z,2.95
2023-09-06T12:43:37.094Z,2.25
2023-09-06T12:46:07.562Z,7.10
2023-09-06T12:48:36.433Z,8.63
2023-09-06T12:51:07.510Z,1.77
2023-09-06T12:53:37.669Z,5.07
2023-09-06T12:56:10.301Z,8.82
2023-09-06T12:58:41.761Z,2.28
2023-09-06T13:01:17.547Z,18.70
2023-09-06T13:03:50.390Z,6.82
2023-09-06T13:06:17.831Z,6.90
2023-09-06T13:08:49.962Z,2.05
2023-09-06T13:11:17.546Z,4.75
2023-09-06T13:13:46.627Z,12.35
2023-09-06T13:16:14.096Z,2.78
2023-09-06T13:18:42.913Z,5.55
2023-09-06T13:21:10.529Z,4.63
2023-09-06T13:23:47.835Z,3.70
2023-09-06T13:26:18.774Z,8.27
2023-09-06T13:28:46.476Z,4.07
2023-09-06T13:31:14.780Z,8.15
2023-09-06T13:33:43.121Z,16.65
2023-09-06T13:39:12.332Z,4.53
2023-09-06T13:41:42.204Z,4.75
2023-09-06T13:44:17.983Z,10.38
2023-09-06T13:46:49.092Z,6.72
2023-09-06T13:49:16.188Z,16.73
2023-09-06T13:51:43.856Z,10.43
2023-09-06T13:54:12.438Z,2.72
2023-09-06T13:56:39.573Z,4.03
2023-09-06T13:59:06.661Z,5.18
2023-09-06T14:01:33.750Z,5.35
2023-09-06T14:04:01.068Z,5.93
2023-09-06T14:06:28.280Z,11.18
2023-09-06T14:08:55.219Z,9.98
2023-09-06T14:11:22.210Z,4.45
2023-09-06T14:13:49.252Z,3.40
2023-09-06T14:16:16.339Z,6.72
2023-09-06T14:18:43.558Z,2.80
2023-09-06T14:21:10.574Z,11.40
2023-09-06T14:23:37.834Z,0.98
2023-09-06T14:26:04.862Z,8.35
2023-09-06T14:28:32.289Z,13.32
2023-09-06T14:30:59.683Z,8.13
2023-09-06T14:33:26.719Z,8.15
2023-09-06T14:35:53.707Z,8.23
2023-09-06T14:38:22.883Z,14.82
2023-09-06T14:40:50.093Z,7.53
2023-09-06T14:43:19.792Z,11.00
2023-09-06T14:45:47.113Z,7.65
2023-09-06T14:48:14.229Z,5.30
2023-09-06T14:50:41.378Z,4.53
2023-09-06T14:53:08.494Z,9.95
2023-09-06T14:55:35.573Z,10.15
2023-09-06T14:58:02.920Z,5.97
2023-09-06T15:00:30.024Z,12.10
2023-09-06T15:02:57.192Z,15.00
2023-09-06T15:05:24.366Z,8.35
2023-09-06T15:07:51.521Z,10.85
2023-09-06T15:10:18.623Z,2.20
2023-09-06T15:12:46.308Z,9.93
2023-09-06T15:15:15.410Z,9.18
2023-09-06T15:17:42.735Z,13.00
2023-09-06T15:20:13.129Z,11.07
2023-09-06T15:22:41.733Z,12.93
2023-09-06T15:25:11.003Z,5.30
2023-09-06T15:27:38.407Z,3.08
2023-09-06T15:30:07.033Z,4.78
2023-09-06T15:32:35.815Z,4.75
2023-09-06T15:35:04.525Z,7.60
2023-09-06T15:37:31.658Z,8.15
2023-09-06T15:39:58.809Z,7.82
2023-09-06T15:42:26.352Z,9.23
2023-09-06T15:44:53.466Z,6.72
2023-09-06T15:47:20.441Z,7.18
2023-09-06T15:49:51.559Z,7.05
2023-09-06T15:52:19.819Z,5.80
2023-09-06T15:54:46.834Z,6.85
2023-09-06T15:57:14.441Z,9.23
2023-09-06T15:59:45.465Z,7.28
2023-09-06T16:02:13.951Z,7.60
2023-09-06T16:04:41.101Z,2.13
2023-09-06T16:07:10.070Z,13.23
2023-09-06T16:09:38.833Z,2.30
2023-09-06T16:12:06.300Z,10.82
2023-09-06T16:14:34.083Z,2.55
2023-09-06T16:17:02.865Z,7.28
2023-09-06T16:19:29.804Z,16.23
2023-09-06T16:21:56.832Z,6.07
2023-09-06T16:24:23.816Z,7.18
2023-09-06T16:26:55.676Z,8.07
2023-09-06T16:29:22.778Z,4.10
2023-09-06T16:31:49.859Z,10.65
2023-09-06T16:34:17.206Z,2.47
2023-09-06T16:36:44.339Z,4.25
2023-09-06T16:39:11.555Z,3.60
2023-09-06T16:41:38.532Z,4.07
2023-09-06T16:44:08.689Z,2.97
2023-09-06T16:46:35.961Z,7.00
2023-09-06T16:49:03.022Z,1.83
2023-09-06T16:51:30.015Z,6.28
2023-09-06T16:53:57.011Z,1.83
2023-09-06T16:56:23.987Z,3.33
2023-09-06T16:58:50.919Z,5.57
2023-09-06T17:01:18.314Z,8.77
2023-09-06T17:03:45.355Z,10.68
2023-09-06T17:06:12.401Z,3.08
2023-09-06T17:08:39.318Z,10.68
2023-09-06T17:11:06.607Z,13.82
2023-09-06T17:13:33.710Z,6.05
2023-09-06T17:16:01.042Z,7.50
2023-09-06T17:18:30.598Z,1.75
2023-09-06T17:20:57.798Z,4.72
2023-09-06T17:23:24.774Z,5.70
2023-09-06T17:25:53.030Z,8.80
2023-09-06T17:28:20.507Z,5.47
2023-09-06T17:30:48.155Z,3.78
2023-09-06T17:33:15.924Z,5.15
2023-09-06T17:35:44.652Z,9.43
2023-09-06T17:38:12.956Z,1.98
2023-09-06T17:40:41.268Z,1.52
2023-09-06T17:43:11.049Z,5.47
2023-09-06T17:45:38.372Z,1.48
2023-09-06T17:48:12.339Z,1.20
2023-09-06T17:50:42.228Z,1.65
2023-09-06T17:53:14.801Z,1.55
2023-09-06T17:55:42.433Z,3.83
2023-09-06T17:58:09.593Z,3.90
2023-09-06T18:00:42.730Z,14.43
2023-09-06T18:03:14.304Z,1.30
2023-09-06T18:05:44.729Z,1.05
2023-09-06T18:08:15.472Z,5.45
2023-09-06T18:10:43.419Z,2.90
2023-09-06T18:13:12.343Z,2.55
2023-09-06T18:15:41.205Z,3.38
2023-09-06T18:18:13.661Z,5.25
2023-09-06T18:20:44.302Z,2.70
2023-09-06T18:23:11.653Z,4.70
2023-09-06T18:25:41.305Z,8.02
2023-09-06T18:28:09.680Z,0.75
2023-09-06T18:30:38.773Z,4.75
2023-09-06T18:33:07.903Z,1.52
2023-09-06T18:35:36.335Z,4.93
2023-09-06T18:38:03.575Z,3.00
2023-09-06T18:40:30.746Z,3.95
2023-09-06T18:43:00.377Z,1.73
2023-09-06T18:45:27.729Z,3.20
2023-09-06T18:47:55.464Z,10.05
2023-09-06T18:50:22.859Z,4.43
2023-09-06T18:52:52.512Z,4.68
2023-09-06T18:55:19.826Z,3.30
2023-09-06T18:57:59.642Z,5.40
2023-09-06T19:00:34.041Z,2.28
2023-09-06T19:03:07.147Z,6.40
2023-09-06T19:05:38.326Z,2.58
2023-09-06T19:08:06.187Z,3.13
2023-09-06T19:10:35.395Z,6.47
2023-09-06T19:13:02.690Z,8.43
2023-09-06T19:15:30.206Z,4.57
2023-09-06T19:17:57.721Z,6.63
2023-09-06T19:20:25.248Z,2.00
2023-09-06T19:22:54.177Z,2.88
2023-09-06T19:25:25.213Z,4.30
2023-09-06T19:27:52.510Z,4.10
2023-09-06T19:30:19.693Z,3.60
2023-09-06T19:32:46.867Z,5.00
2023-09-06T19:35:15.022Z,7.30
2023-09-06T19:37:42.176Z,3.00
2023-09-06T19:40:09.725Z,2.05
2023-09-06T19:42:36.746Z,6.18
2023-09-06T19:45:03.873Z,6.43
2023-09-06T19:47:32.190Z,5.65
2023-09-06T19:49:59.304Z,2.95
2023-09-06T19:52:26.522Z,7.07
2023-09-06T19:55:02.748Z,8.02
2023-09-06T19:57:30.859Z,2.67
2023-09-06T19:59:58.521Z,5.18
2023-09-06T20:02:25.824Z,11.45
2023-09-06T20:04:53.334Z,11.32
2023-09-06T20:07:20.627Z,5.88
2023-09-06T20:09:48.346Z,7.00
2023-09-06T20:12:15.424Z,2.97
2023-09-06T20:14:42.546Z,4.72
2023-09-06T20:17:09.620Z,6.60
2023-09-06T20:19:36.640Z,6.88
2023-09-06T20:22:03.690Z,4.88
2023-09-06T20:24:30.955Z,10.30
2023-09-06T20:26:58.140Z,7.45
2023-09-06T20:29:33.094Z,7.93
2023-09-06T20:32:01.161Z,6.32
2023-09-06T20:34:28.423Z,3.97
2023-09-06T20:36:55.550Z,6.57
2023-09-06T20:39:22.508Z,10.02
2023-09-06T20:41:50.404Z,12.30
2023-09-06T20:44:17.529Z,13.05
2023-09-06T20:46:45.730Z,14.07
2023-09-06T20:49:17.389Z,11.60
2023-09-06T20:51:46.258Z,9.52
2023-09-06T20:54:14.274Z,4.80
2023-09-06T20:56:41.986Z,6.40
2023-09-06T20:59:09.222Z,6.72
2023-09-06T21:01:36.545Z,10.38
2023-09-06T21:04:04.417Z,19.77
2023-09-06T21:06:33.283Z,11.05
2023-09-06T21:09:01.306Z,12.15
2023-09-06T21:11:28.880Z,17.63
2023-09-06T21:13:56.245Z,20.33
2023-09-06T21:16:23.850Z,14.05
2023-09-06T21:18:52.410Z,12.38
2023-09-06T21:21:20.064Z,14.90
2023-09-06T21:23:47.354Z,21.33
2023-09-06T21:26:14.650Z,17.35
2023-09-06T21:28:41.805Z,23.40
2023-09-06T21:31:08.988Z,16.65
2023-09-06T21:33:36.278Z,24.30
2023-09-06T21:36:03.565Z,16.73
2023-09-06T21:38:30.954Z,16.10
2023-09-06T21:41:02.086Z,16.42
2023-09-06T21:43:32.761Z,18.90
2023-09-06T21:46:03.320Z,20.70
2023-09-06T21:48:30.940Z,24.33
2023-09-06T21:51:16.788Z,20.88
2023-09-06T21:53:44.278Z,23.80
2023-09-06T21:56:12.592Z,20.77
2023-09-06T21:58:40.173Z,19.63
2023-09-06T22:01:19.678Z,22.35
2023-09-06T22:04:05.735Z,23.13
2023-09-06T22:06:51.422Z,22.83
2023-09-06T22:09:37.149Z,24.00
2023-09-06T22:12:22.797Z,24.08
2023-09-06T22:14:49.905Z,29.67
2023-09-06T22:17:17.246Z,38.20
2023-09-06T22:19:44.310Z,36.97
2023-09-06T22:22:11.337Z,30.75
2023-09-06T22:24:38.431Z,37.38
2023-09-06T22:27:05.828Z,30.38
2023-09-06T22:29:33.546Z,35.50
2023-09-06T22:32:00.642Z,38.60
2023-09-06T22:34:33.005Z,35.83
2023-09-06T22:37:16.580Z,37.25
2023-09-06T22:39:43.764Z,42.58
2023-09-06T22:42:12.098Z,49.05
2023-09-06T22:44:39.231Z,48.03
2023-09-06T22:47:06.643Z,58.17
2023-09-06T22:49:35.662Z,51.00
2023-09-06T22:52:04.475Z,46.63
2023-09-06T22:54:31.705Z,43.47
2023-09-06T22:56:58.894Z,53.85
2023-09-06T22:59:26.010Z,51.55
2023-09-06T23:01:53.112Z,51.63
2023-09-06T23:04:20.144Z,55.25
2023-09-06T23:06:47.301Z,55.35
2023-09-06T23:09:19.854Z,52.17
2023-09-06T23:11:51.170Z,53.90
2023-09-06T23:14:21.805Z,46.42
2023-09-06T23:16:49.532Z,60.03
2023-09-06T23:19:21.291Z,57.88
2023-09-06T23:21:52.431Z,47.50
2023-09-06T23:24:20.100Z,52.72
2023-09-06T23:26:49.068Z,51.83
2023-09-06T23:29:17.267Z,52.47
2023-09-06T23:31:54.569Z,49.55
2023-09-06T23:35:43.443Z,54.60
2023-09-06T23:39:00.378Z,51.60
2023-09-06T23:41:44.164Z,40.95
2023-09-06T23:44:11.188Z,45.00
2023-09-06T23:46:38.537Z,51.40
2023-09-06T23:49:05.756Z,50.83
2023-09-06T23:51:32.838Z,54.13
2023-09-06T23:53:59.848Z,53.17
2023-09-06T23:56:26.839Z,47.75
2023-09-06T23:58:54.412Z,53.88
